sensor_id;sensor_type;location;lat;lon;timestamp;temperature;humidity
435;DHT22;204;48.942;9.256;2022-08-27T00:01:42;20.50;1.00
435;DHT22;204;48.942;9.256;2022-08-27T00:04:07;20.50;1.00
435;DHT22;204;48.942;9.256;2022-08-27T00:06:33;20.50;1.00
435;DHT22;204;48.942;9.256;2022-08-27T00:09:01;20.50;1.00
435;DHT22;204;48.942;9.256;2022-08-27T00:11:26;20.50;1.00
435;DHT22;204;48.942;9.256;2022-08-27T00:13:52;20.50;1.00
435;DHT22;204;48.942;9.256;2022-08-27T00:16:18;20.60;1.00
435;DHT22;204;48.942;9.256;2022-08-27T00:18:44;20.50;1.00
435;DHT22;204;48.942;9.256;2022-08-27T00:21:11;20.50;1.00
435;DHT22;204;48.942;9.256;2022-08-27T00:23:37;20.50;1.00
435;DHT22;204;48.942;9.256;2022-08-27T00:26:04;20.60;1.00
435;DHT22;204;48.942;9.256;2022-08-27T00:28:30;20.50;1.00
435;DHT22;204;48.942;9.256;2022-08-27T00:30:57;20.50;1.00
435;DHT22;204;48.942;9.256;2022-08-27T00:33:23;20.50;1.00
435;DHT22;204;48.942;9.256;2022-08-27T00:35:49;20.50;1.00
435;DHT22;204;48.942;9.256;2022-08-27T00:38:15;20.50;1.00
435;DHT22;204;48.942;9.256;2022-08-27T00:40:41;20.50;1.00
435;DHT22;204;48.942;9.256;2022-08-27T00:43:07;20.50;1.00
435;DHT22;204;48.942;9.256;2022-08-27T00:45:37;20.50;1.00
435;DHT22;204;48.942;9.256;2022-08-27T00:48:06;20.50;1.00
435;DHT22;204;48.942;9.256;2022-08-27T00:50:42;20.50;1.00
435;DHT22;204;48.942;9.256;2022-08-27T00:53:15;20.60;1.00
435;DHT22;204;48.942;9.256;2022-08-27T00:55:44;20.60;1.00
435;DHT22;204;48.942;9.256;2022-08-27T01:00:41;20.70;1.00
435;DHT22;204;48.942;9.256;2022-08-27T01:03:08;20.70;1.00
435;DHT22;204;48.942;9.256;2022-08-27T01:05:35;20.70;1.00
435;DHT22;204;48.942;9.256;2022-08-27T01:08:06;20.70;1.00
435;DHT22;204;48.942;9.256;2022-08-27T01:10:34;20.70;1.00
435;DHT22;204;48.942;9.256;2022-08-27T01:13:02;20.70;1.00
435;DHT22;204;48.942;9.256;2022-08-27T01:15:28;20.80;1.00
435;DHT22;204;48.942;9.256;2022-08-27T01:17:54;20.80;1.00
435;DHT22;204;48.942;9.256;2022-08-27T01:20:46;20.80;1.00
435;DHT22;204;48.942;9.256;2022-08-27T01:25:49;20.80;1.00
435;DHT22;204;48.942;9.256;2022-08-27T01:28:16;20.80;1.00
435;DHT22;204;48.942;9.256;2022-08-27T01:30:42;20.80;1.00
435;DHT22;204;48.942;9.256;2022-08-27T01:33:16;20.80;1.00
435;DHT22;204;48.942;9.256;2022-08-27T01:35:44;20.80;1.00
435;DHT22;204;48.942;9.256;2022-08-27T01:38:10;20.80;1.00
435;DHT22;204;48.942;9.256;2022-08-27T01:40:36;20.80;1.00
435;DHT22;204;48.942;9.256;2022-08-27T01:43:02;20.80;1.00
435;DHT22;204;48.942;9.256;2022-08-27T01:45:32;20.80;1.00
435;DHT22;204;48.942;9.256;2022-08-27T01:47:59;20.80;1.00
435;DHT22;204;48.942;9.256;2022-08-27T01:50:31;20.80;1.00
435;DHT22;204;48.942;9.256;2022-08-27T01:53:03;20.80;1.00
435;DHT22;204;48.942;9.256;2022-08-27T01:55:28;20.80;1.00
435;DHT22;204;48.942;9.256;2022-08-27T01:57:54;20.80;1.00
435;DHT22;204;48.942;9.256;2022-08-27T02:00:25;20.80;1.00
435;DHT22;204;48.942;9.256;2022-08-27T02:02:51;20.80;1.00
435;DHT22;204;48.942;9.256;2022-08-27T02:05:18;20.80;1.00
435;DHT22;204;48.942;9.256;2022-08-27T02:07:44;20.80;1.00
435;DHT22;204;48.942;9.256;2022-08-27T02:10:11;20.80;1.00
435;DHT22;204;48.942;9.256;2022-08-27T02:12:37;20.80;1.00
435;DHT22;204;48.942;9.256;2022-08-27T02:15:04;20.80;1.00
435;DHT22;204;48.942;9.256;2022-08-27T02:17:30;20.70;1.00
435;DHT22;204;48.942;9.256;2022-08-27T02:19:56;20.80;1.00
435;DHT22;204;48.942;9.256;2022-08-27T02:22:21;20.70;1.00
435;DHT22;204;48.942;9.256;2022-08-27T02:24:48;20.70;1.00
435;DHT22;204;48.942;9.256;2022-08-27T02:27:14;20.70;1.00
435;DHT22;204;48.942;9.256;2022-08-27T02:29:40;20.70;1.00
435;DHT22;204;48.942;9.256;2022-08-27T02:32:05;20.70;1.00
435;DHT22;204;48.942;9.256;2022-08-27T02:34:31;20.70;1.00
435;DHT22;204;48.942;9.256;2022-08-27T02:36:56;20.80;1.00
435;DHT22;204;48.942;9.256;2022-08-27T02:39:22;20.80;1.00
435;DHT22;204;48.942;9.256;2022-08-27T02:41:48;20.80;1.00
435;DHT22;204;48.942;9.256;2022-08-27T02:44:14;20.80;1.00
435;DHT22;204;48.942;9.256;2022-08-27T02:46:40;20.80;1.00
435;DHT22;204;48.942;9.256;2022-08-27T02:49:06;20.80;1.00
435;DHT22;204;48.942;9.256;2022-08-27T02:51:33;20.80;1.00
435;DHT22;204;48.942;9.256;2022-08-27T02:54:00;20.80;1.00
435;DHT22;204;48.942;9.256;2022-08-27T02:56:26;20.80;1.00
435;DHT22;204;48.942;9.256;2022-08-27T02:58:52;20.80;1.00
435;DHT22;204;48.942;9.256;2022-08-27T03:01:18;20.80;1.00
435;DHT22;204;48.942;9.256;2022-08-27T03:03:44;20.90;1.00
435;DHT22;204;48.942;9.256;2022-08-27T03:06:10;20.90;1.00
435;DHT22;204;48.942;9.256;2022-08-27T03:08:36;20.90;1.00
435;DHT22;204;48.942;9.256;2022-08-27T03:11:02;20.90;1.00
435;DHT22;204;48.942;9.256;2022-08-27T03:13:27;20.90;1.00
435;DHT22;204;48.942;9.256;2022-08-27T03:15:53;20.90;1.00
435;DHT22;204;48.942;9.256;2022-08-27T03:18:19;20.90;1.00
435;DHT22;204;48.942;9.256;2022-08-27T03:20:49;20.90;1.00
435;DHT22;204;48.942;9.256;2022-08-27T03:23:17;20.90;1.00
435;DHT22;204;48.942;9.256;2022-08-27T03:25:48;20.90;1.00
435;DHT22;204;48.942;9.256;2022-08-27T03:28:17;20.90;1.00
435;DHT22;204;48.942;9.256;2022-08-27T03:30:46;20.90;1.00
435;DHT22;204;48.942;9.256;2022-08-27T03:33:11;20.90;1.00
435;DHT22;204;48.942;9.256;2022-08-27T03:35:37;20.80;1.00
435;DHT22;204;48.942;9.256;2022-08-27T03:38:03;20.80;1.00
435;DHT22;204;48.942;9.256;2022-08-27T03:40:28;20.80;1.00
435;DHT22;204;48.942;9.256;2022-08-27T03:42:54;20.70;1.00
435;DHT22;204;48.942;9.256;2022-08-27T03:45:19;20.70;1.00
435;DHT22;204;48.942;9.256;2022-08-27T03:47:45;20.70;1.00
435;DHT22;204;48.942;9.256;2022-08-27T03:50:11;20.60;1.00
435;DHT22;204;48.942;9.256;2022-08-27T03:52:37;20.60;1.00
435;DHT22;204;48.942;9.256;2022-08-27T03:55:04;20.50;1.00
435;DHT22;204;48.942;9.256;2022-08-27T03:57:31;20.60;1.00
435;DHT22;204;48.942;9.256;2022-08-27T03:59:56;20.50;1.00
435;DHT22;204;48.942;9.256;2022-08-27T04:02:22;20.40;1.00
435;DHT22;204;48.942;9.256;2022-08-27T04:04:47;20.40;1.00
435;DHT22;204;48.942;9.256;2022-08-27T04:07:13;20.40;1.00
435;DHT22;204;48.942;9.256;2022-08-27T04:09:39;20.30;1.00
435;DHT22;204;48.942;9.256;2022-08-27T04:12:04;20.30;1.00
435;DHT22;204;48.942;9.256;2022-08-27T04:14:30;20.30;1.00
435;DHT22;204;48.942;9.256;2022-08-27T04:16:56;20.30;1.00
435;DHT22;204;48.942;9.256;2022-08-27T04:19:22;20.30;1.00
435;DHT22;204;48.942;9.256;2022-08-27T04:21:48;20.40;1.00
435;DHT22;204;48.942;9.256;2022-08-27T04:24:14;20.40;1.00
435;DHT22;204;48.942;9.256;2022-08-27T04:26:41;20.40;1.00
435;DHT22;204;48.942;9.256;2022-08-27T04:29:07;20.40;1.00
435;DHT22;204;48.942;9.256;2022-08-27T04:31:32;20.40;1.00
435;DHT22;204;48.942;9.256;2022-08-27T04:33:59;20.40;1.00
435;DHT22;204;48.942;9.256;2022-08-27T04:36:25;20.40;1.00
435;DHT22;204;48.942;9.256;2022-08-27T04:38:50;20.50;1.00
435;DHT22;204;48.942;9.256;2022-08-27T04:41:16;20.50;1.00
435;DHT22;204;48.942;9.256;2022-08-27T04:43:56;20.50;1.00
435;DHT22;204;48.942;9.256;2022-08-27T04:46:27;20.50;1.00
435;DHT22;204;48.942;9.256;2022-08-27T04:48:56;20.50;1.00
435;DHT22;204;48.942;9.256;2022-08-27T04:51:22;20.60;1.00
435;DHT22;204;48.942;9.256;2022-08-27T04:53:48;20.50;1.00
435;DHT22;204;48.942;9.256;2022-08-27T04:56:16;20.50;1.00
435;DHT22;204;48.942;9.256;2022-08-27T04:58:41;20.60;1.00
435;DHT22;204;48.942;9.256;2022-08-27T05:01:07;20.60;1.00
435;DHT22;204;48.942;9.256;2022-08-27T05:03:33;20.70;1.00
435;DHT22;204;48.942;9.256;2022-08-27T05:06:03;20.70;1.00
435;DHT22;204;48.942;9.256;2022-08-27T05:08:30;20.70;1.00
435;DHT22;204;48.942;9.256;2022-08-27T05:10:55;20.70;1.00
435;DHT22;204;48.942;9.256;2022-08-27T05:13:22;20.70;1.00
435;DHT22;204;48.942;9.256;2022-08-27T05:16:00;20.70;1.00
435;DHT22;204;48.942;9.256;2022-08-27T05:18:26;20.70;1.00
435;DHT22;204;48.942;9.256;2022-08-27T05:20:52;20.70;1.00
435;DHT22;204;48.942;9.256;2022-08-27T05:23:18;20.80;1.00
435;DHT22;204;48.942;9.256;2022-08-27T05:25:47;20.90;1.00
435;DHT22;204;48.942;9.256;2022-08-27T05:28:14;20.90;1.00
435;DHT22;204;48.942;9.256;2022-08-27T05:30:43;20.90;1.00
435;DHT22;204;48.942;9.256;2022-08-27T05:33:09;20.90;1.00
435;DHT22;204;48.942;9.256;2022-08-27T05:35:42;21.00;1.00
435;DHT22;204;48.942;9.256;2022-08-27T05:38:09;21.10;1.00
435;DHT22;204;48.942;9.256;2022-08-27T05:40:36;21.20;1.00
435;DHT22;204;48.942;9.256;2022-08-27T05:43:02;21.20;1.00
435;DHT22;204;48.942;9.256;2022-08-27T05:45:28;21.20;1.00
435;DHT22;204;48.942;9.256;2022-08-27T05:47:54;21.30;1.00
435;DHT22;204;48.942;9.256;2022-08-27T05:50:19;21.30;1.00
435;DHT22;204;48.942;9.256;2022-08-27T05:52:45;21.30;1.00
435;DHT22;204;48.942;9.256;2022-08-27T05:55:10;21.30;1.00
435;DHT22;204;48.942;9.256;2022-08-27T05:57:37;21.30;1.00
435;DHT22;204;48.942;9.256;2022-08-27T06:00:04;21.30;1.00
435;DHT22;204;48.942;9.256;2022-08-27T06:02:48;21.30;1.00
435;DHT22;204;48.942;9.256;2022-08-27T06:05:14;21.40;1.00
435;DHT22;204;48.942;9.256;2022-08-27T06:07:40;21.40;1.00
435;DHT22;204;48.942;9.256;2022-08-27T06:10:06;21.40;1.00
435;DHT22;204;48.942;9.256;2022-08-27T06:12:32;21.40;1.00
435;DHT22;204;48.942;9.256;2022-08-27T06:14:59;21.40;1.00
435;DHT22;204;48.942;9.256;2022-08-27T06:17:24;21.50;1.00
435;DHT22;204;48.942;9.256;2022-08-27T06:19:50;21.60;1.00
435;DHT22;204;48.942;9.256;2022-08-27T06:22:16;21.60;1.00
435;DHT22;204;48.942;9.256;2022-08-27T06:24:42;21.60;1.00
435;DHT22;204;48.942;9.256;2022-08-27T06:27:13;21.70;1.00
435;DHT22;204;48.942;9.256;2022-08-27T06:29:39;21.70;1.00
435;DHT22;204;48.942;9.256;2022-08-27T06:32:05;21.70;1.00
435;DHT22;204;48.942;9.256;2022-08-27T06:34:32;21.60;1.00
435;DHT22;204;48.942;9.256;2022-08-27T06:36:58;21.70;1.00
435;DHT22;204;48.942;9.256;2022-08-27T06:39:24;21.70;1.00
435;DHT22;204;48.942;9.256;2022-08-27T06:41:50;21.70;1.00
435;DHT22;204;48.942;9.256;2022-08-27T06:44:16;21.60;1.00
435;DHT22;204;48.942;9.256;2022-08-27T06:46:42;21.70;1.00
435;DHT22;204;48.942;9.256;2022-08-27T06:49:09;21.60;1.00
435;DHT22;204;48.942;9.256;2022-08-27T06:51:36;21.70;1.00
435;DHT22;204;48.942;9.256;2022-08-27T06:54:09;21.80;1.00
435;DHT22;204;48.942;9.256;2022-08-27T06:56:36;21.80;1.00
435;DHT22;204;48.942;9.256;2022-08-27T06:59:04;21.90;1.00
435;DHT22;204;48.942;9.256;2022-08-27T07:01:35;22.00;1.00
435;DHT22;204;48.942;9.256;2022-08-27T07:04:04;22.10;1.00
435;DHT22;204;48.942;9.256;2022-08-27T07:06:31;22.00;1.00
435;DHT22;204;48.942;9.256;2022-08-27T07:08:58;22.00;1.00
435;DHT22;204;48.942;9.256;2022-08-27T07:11:24;22.00;1.00
435;DHT22;204;48.942;9.256;2022-08-27T07:13:50;22.00;1.00
435;DHT22;204;48.942;9.256;2022-08-27T07:16:21;22.00;1.00
435;DHT22;204;48.942;9.256;2022-08-27T07:18:49;21.90;1.00
435;DHT22;204;48.942;9.256;2022-08-27T07:21:15;21.90;1.00
435;DHT22;204;48.942;9.256;2022-08-27T07:23:44;21.90;1.00
435;DHT22;204;48.942;9.256;2022-08-27T07:26:11;21.90;1.00
435;DHT22;204;48.942;9.256;2022-08-27T07:28:40;21.80;1.00
435;DHT22;204;48.942;9.256;2022-08-27T07:31:08;21.90;1.00
435;DHT22;204;48.942;9.256;2022-08-27T07:33:34;21.80;1.00
435;DHT22;204;48.942;9.256;2022-08-27T07:36:00;21.80;1.00
435;DHT22;204;48.942;9.256;2022-08-27T07:38:26;21.80;1.00
435;DHT22;204;48.942;9.256;2022-08-27T07:40:52;21.80;1.00
435;DHT22;204;48.942;9.256;2022-08-27T07:43:18;21.70;1.00
435;DHT22;204;48.942;9.256;2022-08-27T07:46:03;21.70;1.00
435;DHT22;204;48.942;9.256;2022-08-27T07:48:29;21.70;1.00
435;DHT22;204;48.942;9.256;2022-08-27T07:50:57;21.70;1.00
435;DHT22;204;48.942;9.256;2022-08-27T07:53:23;21.70;1.00
435;DHT22;204;48.942;9.256;2022-08-27T07:55:48;21.60;1.00
435;DHT22;204;48.942;9.256;2022-08-27T07:58:14;21.60;1.00
435;DHT22;204;48.942;9.256;2022-08-27T08:00:41;21.70;1.00
435;DHT22;204;48.942;9.256;2022-08-27T08:03:07;21.60;1.00
435;DHT22;204;48.942;9.256;2022-08-27T08:05:33;21.70;1.00
435;DHT22;204;48.942;9.256;2022-08-27T08:07:58;21.70;1.00
435;DHT22;204;48.942;9.256;2022-08-27T08:10:24;21.80;1.00
435;DHT22;204;48.942;9.256;2022-08-27T08:12:50;21.80;1.00
435;DHT22;204;48.942;9.256;2022-08-27T08:15:16;21.80;1.00
435;DHT22;204;48.942;9.256;2022-08-27T08:17:43;21.80;1.00
435;DHT22;204;48.942;9.256;2022-08-27T08:20:10;21.80;1.00
435;DHT22;204;48.942;9.256;2022-08-27T08:22:37;21.80;1.00
435;DHT22;204;48.942;9.256;2022-08-27T08:25:03;21.80;1.00
435;DHT22;204;48.942;9.256;2022-08-27T08:27:29;21.80;1.00
435;DHT22;204;48.942;9.256;2022-08-27T08:29:58;21.80;1.00
435;DHT22;204;48.942;9.256;2022-08-27T08:32:23;21.90;1.00
435;DHT22;204;48.942;9.256;2022-08-27T08:34:49;22.00;1.00
435;DHT22;204;48.942;9.256;2022-08-27T08:37:15;22.00;1.00
435;DHT22;204;48.942;9.256;2022-08-27T08:39:40;22.00;1.00
435;DHT22;204;48.942;9.256;2022-08-27T08:45:02;22.00;1.00
435;DHT22;204;48.942;9.256;2022-08-27T08:47:43;22.00;1.00
435;DHT22;204;48.942;9.256;2022-08-27T08:50:29;22.00;1.00
435;DHT22;204;48.942;9.256;2022-08-27T08:53:08;22.00;1.00
435;DHT22;204;48.942;9.256;2022-08-27T08:55:43;22.00;1.00
435;DHT22;204;48.942;9.256;2022-08-27T09:01:33;22.10;1.00
435;DHT22;204;48.942;9.256;2022-08-27T09:04:02;22.10;1.00
435;DHT22;204;48.942;9.256;2022-08-27T09:09:03;22.10;1.00
435;DHT22;204;48.942;9.256;2022-08-27T09:11:39;22.10;1.00
435;DHT22;204;48.942;9.256;2022-08-27T09:17:02;22.10;1.00
435;DHT22;204;48.942;9.256;2022-08-27T09:19:28;22.10;1.00
435;DHT22;204;48.942;9.256;2022-08-27T09:22:05;22.10;1.00
435;DHT22;204;48.942;9.256;2022-08-27T09:24:48;22.20;1.00
435;DHT22;204;48.942;9.256;2022-08-27T09:27:17;22.20;1.00
435;DHT22;204;48.942;9.256;2022-08-27T09:29:52;22.30;1.00
435;DHT22;204;48.942;9.256;2022-08-27T09:32:24;22.50;1.00
435;DHT22;204;48.942;9.256;2022-08-27T09:34:50;22.60;1.00
435;DHT22;204;48.942;9.256;2022-08-27T09:37:19;22.80;1.00
435;DHT22;204;48.942;9.256;2022-08-27T09:39:55;22.90;1.00
435;DHT22;204;48.942;9.256;2022-08-27T09:45:00;23.10;1.00
435;DHT22;204;48.942;9.256;2022-08-27T09:47:26;23.10;1.00
435;DHT22;204;48.942;9.256;2022-08-27T09:50:06;23.20;1.00
435;DHT22;204;48.942;9.256;2022-08-27T09:52:36;23.20;1.00
435;DHT22;204;48.942;9.256;2022-08-27T09:55:04;23.30;1.00
435;DHT22;204;48.942;9.256;2022-08-27T09:57:37;23.60;1.00
435;DHT22;204;48.942;9.256;2022-08-27T10:00:06;23.80;1.00
435;DHT22;204;48.942;9.256;2022-08-27T10:02:33;24.00;1.00
435;DHT22;204;48.942;9.256;2022-08-27T10:05:12;24.20;1.00
435;DHT22;204;48.942;9.256;2022-08-27T10:10:18;24.80;1.00
435;DHT22;204;48.942;9.256;2022-08-27T10:13:05;25.00;1.00
435;DHT22;204;48.942;9.256;2022-08-27T10:24:14;25.80;1.00
435;DHT22;204;48.942;9.256;2022-08-27T10:26:56;26.00;1.00
435;DHT22;204;48.942;9.256;2022-08-27T10:35:29;26.50;1.00
435;DHT22;204;48.942;9.256;2022-08-27T10:49:19;26.50;1.00
435;DHT22;204;48.942;9.256;2022-08-27T10:54:21;26.40;1.00
435;DHT22;204;48.942;9.256;2022-08-27T11:02:46;26.20;1.00
435;DHT22;204;48.942;9.256;2022-08-27T11:07:56;26.30;1.00
435;DHT22;204;48.942;9.256;2022-08-27T11:12:59;26.50;1.00
435;DHT22;204;48.942;9.256;2022-08-27T11:15:30;26.60;1.00
435;DHT22;204;48.942;9.256;2022-08-27T11:23:58;26.70;1.00
435;DHT22;204;48.942;9.256;2022-08-27T11:26:22;26.60;1.00
435;DHT22;204;48.942;9.256;2022-08-27T11:28:54;26.60;1.00
435;DHT22;204;48.942;9.256;2022-08-27T11:45:14;26.30;1.00
435;DHT22;204;48.942;9.256;2022-08-27T11:47:51;26.40;1.00
435;DHT22;204;48.942;9.256;2022-08-27T11:50:19;26.50;1.00
435;DHT22;204;48.942;9.256;2022-08-27T11:53:04;26.50;1.00
435;DHT22;204;48.942;9.256;2022-08-27T11:55:31;26.50;1.00
435;DHT22;204;48.942;9.256;2022-08-27T12:00:56;26.50;1.00
435;DHT22;204;48.942;9.256;2022-08-27T12:03:28;26.40;1.00
435;DHT22;204;48.942;9.256;2022-08-27T12:26:58;25.90;1.00
435;DHT22;204;48.942;9.256;2022-08-27T12:43:26;26.10;1.00
435;DHT22;204;48.942;9.256;2022-08-27T12:46:07;26.10;1.00
435;DHT22;204;48.942;9.256;2022-08-27T12:51:32;26.10;1.00
435;DHT22;204;48.942;9.256;2022-08-27T12:57:03;26.10;1.00
435;DHT22;204;48.942;9.256;2022-08-27T13:02:19;26.30;1.00
435;DHT22;204;48.942;9.256;2022-08-27T13:04:47;26.30;1.00
435;DHT22;204;48.942;9.256;2022-08-27T13:07:29;26.50;1.00
435;DHT22;204;48.942;9.256;2022-08-27T13:09:55;26.60;1.00
435;DHT22;204;48.942;9.256;2022-08-27T13:12:23;26.80;1.00
435;DHT22;204;48.942;9.256;2022-08-27T13:14:49;27.00;1.00
435;DHT22;204;48.942;9.256;2022-08-27T13:17:19;27.30;1.00
435;DHT22;204;48.942;9.256;2022-08-27T13:20:10;27.50;1.00
435;DHT22;204;48.942;9.256;2022-08-27T13:22:39;27.70;1.00
435;DHT22;204;48.942;9.256;2022-08-27T13:25:30;27.80;1.00
435;DHT22;204;48.942;9.256;2022-08-27T13:30:35;28.10;1.00
435;DHT22;204;48.942;9.256;2022-08-27T13:33:04;28.10;1.00
435;DHT22;204;48.942;9.256;2022-08-27T13:35:30;28.20;1.00
435;DHT22;204;48.942;9.256;2022-08-27T13:37:57;28.40;1.00
435;DHT22;204;48.942;9.256;2022-08-27T13:42:56;28.60;1.00
435;DHT22;204;48.942;9.256;2022-08-27T13:45:26;28.70;1.00
435;DHT22;204;48.942;9.256;2022-08-27T13:47:52;28.70;1.00
435;DHT22;204;48.942;9.256;2022-08-27T13:50:31;28.70;1.00
435;DHT22;204;48.942;9.256;2022-08-27T13:53:05;28.70;1.00
435;DHT22;204;48.942;9.256;2022-08-27T13:55:50;28.70;1.00
435;DHT22;204;48.942;9.256;2022-08-27T13:58:23;28.80;1.00
435;DHT22;204;48.942;9.256;2022-08-27T14:00:49;28.80;1.00
435;DHT22;204;48.942;9.256;2022-08-27T14:03:33;28.80;1.00
435;DHT22;204;48.942;9.256;2022-08-27T14:05:59;28.70;1.00
435;DHT22;204;48.942;9.256;2022-08-27T14:08:33;28.70;1.00
435;DHT22;204;48.942;9.256;2022-08-27T14:11:06;28.70;1.00
435;DHT22;204;48.942;9.256;2022-08-27T14:13:44;28.60;1.00
435;DHT22;204;48.942;9.256;2022-08-27T14:16:32;28.50;1.00
435;DHT22;204;48.942;9.256;2022-08-27T14:19:13;28.30;1.00
435;DHT22;204;48.942;9.256;2022-08-27T14:21:47;28.20;1.00
435;DHT22;204;48.942;9.256;2022-08-27T14:24:13;27.90;1.00
435;DHT22;204;48.942;9.256;2022-08-27T14:26:39;27.80;1.00
435;DHT22;204;48.942;9.256;2022-08-27T14:29:04;27.60;1.00
435;DHT22;204;48.942;9.256;2022-08-27T14:31:30;27.40;1.00
435;DHT22;204;48.942;9.256;2022-08-27T14:33:56;27.30;1.00
435;DHT22;204;48.942;9.256;2022-08-27T14:36:23;27.30;1.00
435;DHT22;204;48.942;9.256;2022-08-27T14:38:50;27.20;1.00
435;DHT22;204;48.942;9.256;2022-08-27T14:41:17;27.20;1.00
435;DHT22;204;48.942;9.256;2022-08-27T14:43:44;27.30;1.00
435;DHT22;204;48.942;9.256;2022-08-27T14:46:27;27.20;1.00
435;DHT22;204;48.942;9.256;2022-08-27T14:48:54;27.10;1.00
435;DHT22;204;48.942;9.256;2022-08-27T14:51:28;27.10;1.00
435;DHT22;204;48.942;9.256;2022-08-27T14:53:55;26.90;1.00
435;DHT22;204;48.942;9.256;2022-08-27T14:56:22;26.80;1.00
435;DHT22;204;48.942;9.256;2022-08-27T14:58:48;26.80;1.00
435;DHT22;204;48.942;9.256;2022-08-27T15:01:15;26.70;1.00
435;DHT22;204;48.942;9.256;2022-08-27T15:03:45;26.70;1.00
435;DHT22;204;48.942;9.256;2022-08-27T15:06:15;26.60;1.00
435;DHT22;204;48.942;9.256;2022-08-27T15:08:41;26.50;1.00
435;DHT22;204;48.942;9.256;2022-08-27T15:11:15;26.40;1.00
435;DHT22;204;48.942;9.256;2022-08-27T15:13:42;26.40;1.00
435;DHT22;204;48.942;9.256;2022-08-27T15:16:07;26.40;1.00
435;DHT22;204;48.942;9.256;2022-08-27T15:18:33;26.50;1.00
435;DHT22;204;48.942;9.256;2022-08-27T15:20:58;26.40;1.00
435;DHT22;204;48.942;9.256;2022-08-27T15:23:24;26.40;1.00
435;DHT22;204;48.942;9.256;2022-08-27T15:25:50;26.40;1.00
435;DHT22;204;48.942;9.256;2022-08-27T15:28:15;26.30;1.00
435;DHT22;204;48.942;9.256;2022-08-27T15:30:41;26.30;1.00
435;DHT22;204;48.942;9.256;2022-08-27T15:33:07;26.40;1.00
435;DHT22;204;48.942;9.256;2022-08-27T15:35:33;26.50;1.00
435;DHT22;204;48.942;9.256;2022-08-27T15:37:59;26.50;1.00
435;DHT22;204;48.942;9.256;2022-08-27T15:40:26;26.40;1.00
435;DHT22;204;48.942;9.256;2022-08-27T15:43:01;26.40;1.00
435;DHT22;204;48.942;9.256;2022-08-27T15:45:28;26.30;1.00
435;DHT22;204;48.942;9.256;2022-08-27T15:47:55;26.30;1.00
435;DHT22;204;48.942;9.256;2022-08-27T15:50:21;26.20;1.00
435;DHT22;204;48.942;9.256;2022-08-27T15:52:47;26.10;1.00
435;DHT22;204;48.942;9.256;2022-08-27T15:55:20;26.10;1.00
435;DHT22;204;48.942;9.256;2022-08-27T15:57:46;26.10;1.00
435;DHT22;204;48.942;9.256;2022-08-27T16:00:12;26.10;1.00
435;DHT22;204;48.942;9.256;2022-08-27T16:02:39;26.00;1.00
435;DHT22;204;48.942;9.256;2022-08-27T16:05:05;26.00;1.00
435;DHT22;204;48.942;9.256;2022-08-27T16:07:31;26.00;1.00
435;DHT22;204;48.942;9.256;2022-08-27T16:09:57;26.00;1.00
435;DHT22;204;48.942;9.256;2022-08-27T16:12:22;25.90;1.00
435;DHT22;204;48.942;9.256;2022-08-27T16:14:48;25.80;1.00
435;DHT22;204;48.942;9.256;2022-08-27T16:17:13;25.70;1.00
435;DHT22;204;48.942;9.256;2022-08-27T16:19:39;25.70;1.00
435;DHT22;204;48.942;9.256;2022-08-27T16:22:05;25.70;1.00
435;DHT22;204;48.942;9.256;2022-08-27T16:24:31;25.60;1.00
435;DHT22;204;48.942;9.256;2022-08-27T16:26:57;25.40;1.00
435;DHT22;204;48.942;9.256;2022-08-27T16:29:23;25.20;1.00
435;DHT22;204;48.942;9.256;2022-08-27T16:31:48;25.10;1.00
435;DHT22;204;48.942;9.256;2022-08-27T16:34:16;25.00;1.00
435;DHT22;204;48.942;9.256;2022-08-27T16:36:43;25.00;1.00
435;DHT22;204;48.942;9.256;2022-08-27T16:39:09;24.90;1.00
435;DHT22;204;48.942;9.256;2022-08-27T16:41:35;24.80;1.00
435;DHT22;204;48.942;9.256;2022-08-27T16:44:00;24.70;1.00
435;DHT22;204;48.942;9.256;2022-08-27T16:46:26;24.60;1.00
435;DHT22;204;48.942;9.256;2022-08-27T16:48:51;24.50;1.00
435;DHT22;204;48.942;9.256;2022-08-27T16:51:35;24.50;1.00
435;DHT22;204;48.942;9.256;2022-08-27T16:54:03;24.60;1.00
435;DHT22;204;48.942;9.256;2022-08-27T16:56:29;24.60;1.00
435;DHT22;204;48.942;9.256;2022-08-27T16:58:55;24.60;1.00
435;DHT22;204;48.942;9.256;2022-08-27T17:01:22;24.60;1.00
435;DHT22;204;48.942;9.256;2022-08-27T17:03:51;24.60;1.00
435;DHT22;204;48.942;9.256;2022-08-27T17:06:18;24.60;1.00
435;DHT22;204;48.942;9.256;2022-08-27T17:08:46;24.60;1.00
435;DHT22;204;48.942;9.256;2022-08-27T17:11:19;24.50;1.00
435;DHT22;204;48.942;9.256;2022-08-27T17:13:47;24.50;1.00
435;DHT22;204;48.942;9.256;2022-08-27T17:16:15;24.50;1.00
435;DHT22;204;48.942;9.256;2022-08-27T17:18:44;24.50;1.00
435;DHT22;204;48.942;9.256;2022-08-27T17:21:10;24.50;1.00
435;DHT22;204;48.942;9.256;2022-08-27T17:23:39;24.50;1.00
435;DHT22;204;48.942;9.256;2022-08-27T17:26:08;24.50;1.00
435;DHT22;204;48.942;9.256;2022-08-27T17:28:34;24.40;1.00
435;DHT22;204;48.942;9.256;2022-08-27T17:31:01;24.30;1.00
435;DHT22;204;48.942;9.256;2022-08-27T17:33:30;24.20;1.00
435;DHT22;204;48.942;9.256;2022-08-27T17:35:56;24.10;1.00
435;DHT22;204;48.942;9.256;2022-08-27T17:38:23;23.90;1.00
435;DHT22;204;48.942;9.256;2022-08-27T17:40:51;23.60;1.00
435;DHT22;204;48.942;9.256;2022-08-27T17:43:18;23.30;1.00
435;DHT22;204;48.942;9.256;2022-08-27T17:45:44;23.10;1.00
435;DHT22;204;48.942;9.256;2022-08-27T17:48:09;22.90;1.00
435;DHT22;204;48.942;9.256;2022-08-27T17:50:36;22.80;1.00
435;DHT22;204;48.942;9.256;2022-08-27T17:53:04;22.70;1.00
435;DHT22;204;48.942;9.256;2022-08-27T17:55:29;22.60;1.00
435;DHT22;204;48.942;9.256;2022-08-27T17:57:56;22.60;1.00
435;DHT22;204;48.942;9.256;2022-08-27T18:00:21;22.60;1.00
435;DHT22;204;48.942;9.256;2022-08-27T18:02:48;22.50;1.00
435;DHT22;204;48.942;9.256;2022-08-27T18:05:16;22.50;1.00
435;DHT22;204;48.942;9.256;2022-08-27T18:07:43;22.40;1.00
435;DHT22;204;48.942;9.256;2022-08-27T18:10:11;22.30;1.00
435;DHT22;204;48.942;9.256;2022-08-27T18:12:39;22.30;1.00
435;DHT22;204;48.942;9.256;2022-08-27T18:17:32;22.10;1.00
435;DHT22;204;48.942;9.256;2022-08-27T18:19:57;22.00;1.00
435;DHT22;204;48.942;9.256;2022-08-27T18:22:23;21.90;1.00
435;DHT22;204;48.942;9.256;2022-08-27T18:24:51;21.80;1.00
435;DHT22;204;48.942;9.256;2022-08-27T18:27:17;21.70;1.00
435;DHT22;204;48.942;9.256;2022-08-27T18:29:42;21.70;1.00
435;DHT22;204;48.942;9.256;2022-08-27T18:32:08;21.60;1.00
435;DHT22;204;48.942;9.256;2022-08-27T18:34:34;21.60;1.00
435;DHT22;204;48.942;9.256;2022-08-27T18:36:59;21.50;1.00
435;DHT22;204;48.942;9.256;2022-08-27T18:39:25;21.50;1.00
435;DHT22;204;48.942;9.256;2022-08-27T18:41:50;21.40;1.00
435;DHT22;204;48.942;9.256;2022-08-27T18:44:16;21.40;1.00
435;DHT22;204;48.942;9.256;2022-08-27T18:46:42;21.40;1.00
435;DHT22;204;48.942;9.256;2022-08-27T18:49:07;21.30;1.00
435;DHT22;204;48.942;9.256;2022-08-27T18:51:33;21.20;1.00
435;DHT22;204;48.942;9.256;2022-08-27T18:53:59;21.20;1.00
435;DHT22;204;48.942;9.256;2022-08-27T18:56:25;21.20;1.00
435;DHT22;204;48.942;9.256;2022-08-27T18:58:51;21.10;1.00
435;DHT22;204;48.942;9.256;2022-08-27T19:01:19;21.10;1.00
435;DHT22;204;48.942;9.256;2022-08-27T19:03:49;21.10;1.00
435;DHT22;204;48.942;9.256;2022-08-27T19:06:17;21.00;1.00
435;DHT22;204;48.942;9.256;2022-08-27T19:08:45;20.90;1.00
435;DHT22;204;48.942;9.256;2022-08-27T19:11:11;20.90;1.00
435;DHT22;204;48.942;9.256;2022-08-27T19:13:38;20.90;1.00